Aérodrome :
LOGIN :

S'inscrire | Disclaimer

   EN    FR    IT 

 










Légende :    VFR   VFR Marginal   IFR   IFR Intensif   IFR Très Intensif
Visi : 
Plafond : 
>= 8 km
>= 3000ft
5 à 8 km
1000 à 3000 ft
1500m à 5 km
500 à 1000 ft
800 à 1500m
200 à 500 ft
< 800m
< 200 ft
Symboles :   Orages  Brouillard  Fortes neiges  Fortes précipitations  Vent > 20 kt
SIGMETs :   Divers  Orages  Givrage  Turbulence  Onde Orograph.  Cendres Volcan.






- Altitude de l'aérodrome : 425 ft
- Code IATA : DTM


EDLW - Dortmund

DERNIER METAR :
  • 060320Z AUTO 17010KT 9999 // NCD 12/M01 Q1018

METARs EXPIRÉS :
  • 060250Z AUTO 17008KT 9999 // NCD 12/M01 Q1017
  • 060220Z AUTO 16005KT 9999 // NCD 13/M01 Q1018
  • 060150Z AUTO 16004KT 9999 // NCD 11/M01 Q1018
  • 060120Z AUTO 09006KT 9999 // NCD 09/M00 Q1018
  • 060050Z AUTO 09005KT 9999 // NCD 09/M00 Q1018
  • 060020Z AUTO 08005KT 060V130 9999 // NCD 11/M01 Q1018

TAF TAF EDLW
Valide du 05 à 12h jusqu'au 06 à 12h UTC


051100Z 0512/0612 14013KT CAVOK
BECMG 0515/0518 15008KT
BECMG 0606/0609 21012KT



MET'MAP, la Météo Aéronautique d'un coup d'oeil ! - Copyright ORBIFLY Décembre 2007 - Disclaimer

ORBIFLY MET'MAP TEAM :

Programmation & Développement : Alexandra Zaïnal
Sur une idée originale de : Baudouin d'Aumeries
Assistance à la programmation : Marc-Olivier Méhu
Soutien technique & logistique : Manuel Goepfert

Contact : metmap@orbifly.com




SOURCES & CREDITS :

   NOAA